createdAt,value
2019-03-08T00:01:58.038Z,99.90
2019-03-08T00:04:28.195Z,99.90
2019-03-08T00:06:59.277Z,99.90
2019-03-08T00:09:32.327Z,99.90
2019-03-08T00:12:04.110Z,99.90
2019-03-08T00:14:34.310Z,99.90
2019-03-08T00:17:04.550Z,99.90
2019-03-08T00:19:34.818Z,99.90
2019-03-08T00:22:11.437Z,99.90
2019-03-08T00:24:41.690Z,99.90
2019-03-08T00:27:11.894Z,99.90
2019-03-08T00:29:42.926Z,99.90
2019-03-08T00:32:15.111Z,99.90
2019-03-08T00:34:45.278Z,99.90
2019-03-08T00:37:15.602Z,99.90
2019-03-08T00:39:45.854Z,99.90
2019-03-08T00:42:16.053Z,99.90
2019-03-08T00:44:46.275Z,99.90
2019-03-08T00:47:16.497Z,99.90
2019-03-08T00:49:46.769Z,99.90
2019-03-08T00:52:16.941Z,99.90
2019-03-08T00:54:47.281Z,99.90
2019-03-08T00:57:18.404Z,99.90
2019-03-08T00:59:48.905Z,99.90
2019-03-08T01:02:20.401Z,99.90
2019-03-08T01:04:50.600Z,99.90
2019-03-08T01:07:20.791Z,99.90
2019-03-08T01:09:51.043Z,99.90
2019-03-08T01:12:21.488Z,99.90
2019-03-08T01:14:51.716Z,99.90
2019-03-08T01:17:22.200Z,99.90
2019-03-08T01:19:52.387Z,99.90
2019-03-08T01:22:22.588Z,99.90
2019-03-08T01:24:52.832Z,99.90
2019-03-08T01:27:23.054Z,99.90
2019-03-08T01:29:53.495Z,99.90
2019-03-08T01:32:23.669Z,99.90
2019-03-08T01:34:53.774Z,99.90
2019-03-08T01:37:24.039Z,99.90
2019-03-08T01:39:54.317Z,99.90
2019-03-08T01:42:24.526Z,99.90
2019-03-08T01:44:54.654Z,99.90
2019-03-08T01:47:25.002Z,99.90
2019-03-08T01:49:55.169Z,99.90
2019-03-08T01:52:25.326Z,99.90
2019-03-08T01:54:55.639Z,99.90
2019-03-08T01:57:25.930Z,99.90
2019-03-08T01:59:57.151Z,99.90
2019-03-08T02:02:27.442Z,99.90
2019-03-08T02:04:57.772Z,99.90
2019-03-08T02:07:27.794Z,99.90
2019-03-08T02:09:58.121Z,99.90
2019-03-08T02:12:28.463Z,99.90
2019-03-08T02:14:58.627Z,99.90
2019-03-08T02:17:28.754Z,99.90
2019-03-08T02:19:58.945Z,99.90
2019-03-08T02:22:29.524Z,99.90
2019-03-08T02:24:59.779Z,99.90
2019-03-08T02:27:30.011Z,99.90
2019-03-08T02:30:00.414Z,99.90
2019-03-08T02:32:30.769Z,99.90
2019-03-08T02:35:01.246Z,99.90
2019-03-08T02:37:31.446Z,99.90
2019-03-08T02:40:01.791Z,99.90
2019-03-08T02:42:32.142Z,99.90
2019-03-08T02:45:02.345Z,99.90
2019-03-08T02:47:32.914Z,99.90
2019-03-08T02:50:03.115Z,99.90
2019-03-08T02:52:33.358Z,99.90
2019-03-08T02:55:03.586Z,99.90
2019-03-08T02:57:33.738Z,99.90
2019-03-08T03:00:04.011Z,99.90
2019-03-08T03:02:35.180Z,99.90
2019-03-08T03:05:05.893Z,99.90
2019-03-08T03:07:36.098Z,99.90
2019-03-08T03:10:06.801Z,99.90
2019-03-08T03:12:37.255Z,99.90
2019-03-08T03:15:08.185Z,99.90
2019-03-08T03:17:38.470Z,99.90
2019-03-08T03:20:08.905Z,99.90
2019-03-08T03:22:39.161Z,99.90
2019-03-08T03:25:09.455Z,99.90
2019-03-08T03:27:39.725Z,99.90
2019-03-08T03:30:10.246Z,99.90
2019-03-08T03:32:40.481Z,99.90
2019-03-08T03:35:10.723Z,99.90
2019-03-08T03:37:40.925Z,99.90
2019-03-08T03:40:11.894Z,99.90
2019-03-08T03:42:42.078Z,99.90
2019-03-08T03:45:12.650Z,99.90
2019-03-08T03:47:42.909Z,99.90
2019-03-08T03:50:13.415Z,99.90
2019-03-08T03:52:43.926Z,99.90
2019-03-08T03:55:14.738Z,99.90
2019-03-08T03:57:44.939Z,99.90
2019-03-08T04:00:16.460Z,99.90
2019-03-08T04:02:46.711Z,99.90
2019-03-08T04:05:18.062Z,99.90
2019-03-08T04:07:48.413Z,99.90
2019-03-08T04:10:19.313Z,99.90
2019-03-08T04:12:49.488Z,99.90
2019-03-08T04:15:19.731Z,99.90
2019-03-08T04:17:50.297Z,99.90
2019-03-08T04:20:20.510Z,99.90
2019-03-08T04:22:50.697Z,99.90
2019-03-08T04:25:20.956Z,99.90
2019-03-08T04:27:51.231Z,99.90
2019-03-08T04:30:21.846Z,99.90
2019-03-08T04:32:52.192Z,99.90
2019-03-08T04:35:22.409Z,99.90
2019-03-08T04:37:52.619Z,99.90
2019-03-08T04:40:22.943Z,99.90
2019-03-08T04:42:53.206Z,99.90
2019-03-08T04:45:23.377Z,99.90
2019-03-08T04:47:53.615Z,99.90
2019-03-08T04:50:23.871Z,99.90
2019-03-08T04:52:54.046Z,99.90
2019-03-08T04:55:24.326Z,99.90
2019-03-08T04:57:54.549Z,99.90
2019-03-08T05:00:24.754Z,99.90
2019-03-08T05:02:55.047Z,99.90
2019-03-08T05:05:25.263Z,99.90
2019-03-08T05:07:56.397Z,99.90
2019-03-08T05:10:26.779Z,99.90
2019-03-08T05:12:56.954Z,99.90
2019-03-08T05:15:27.098Z,99.90
2019-03-08T05:17:58.508Z,99.90
2019-03-08T05:20:28.894Z,99.90
2019-03-08T05:22:59.401Z,99.90
2019-03-08T05:25:29.679Z,99.90
2019-03-08T05:28:00.022Z,99.90
2019-03-08T05:30:30.211Z,99.90
2019-03-08T05:33:00.453Z,99.90
2019-03-08T05:35:30.615Z,99.90
2019-03-08T05:38:00.802Z,99.90
2019-03-08T05:40:31.229Z,99.90
2019-03-08T05:43:01.482Z,99.90
2019-03-08T05:45:31.830Z,99.90
2019-03-08T05:48:02.026Z,99.90
2019-03-08T05:50:32.206Z,99.90
2019-03-08T05:53:02.367Z,99.90
2019-03-08T05:55:32.590Z,99.90
2019-03-08T05:58:02.813Z,99.90
2019-03-08T06:00:34.882Z,99.90
2019-03-08T06:03:05.361Z,99.90
2019-03-08T06:05:35.520Z,99.90
2019-03-08T06:08:05.708Z,99.90
2019-03-08T06:10:37.015Z,99.90
2019-03-08T06:13:08.043Z,99.90
2019-03-08T06:15:38.257Z,99.90
2019-03-08T06:18:08.509Z,99.90
2019-03-08T06:20:38.646Z,99.90
2019-03-08T06:23:10.048Z,99.90
2019-03-08T06:25:40.289Z,99.90
2019-03-08T06:28:10.824Z,99.90
2019-03-08T06:30:41.682Z,99.90
2019-03-08T06:33:13.674Z,99.90
2019-03-08T06:35:43.921Z,99.90
2019-03-08T06:38:14.200Z,99.90
2019-03-08T06:40:44.460Z,99.90
2019-03-08T06:43:15.002Z,99.90
2019-03-08T06:45:45.478Z,99.90
2019-03-08T06:48:15.874Z,99.90
2019-03-08T06:50:46.077Z,99.90
2019-03-08T06:53:16.442Z,99.90
2019-03-08T06:55:47.794Z,99.90
2019-03-08T06:58:28.243Z,99.90
2019-03-08T07:01:11.481Z,99.90
2019-03-08T07:03:42.428Z,99.90
2019-03-08T07:06:12.628Z,99.90
2019-03-08T07:08:42.974Z,99.90
2019-03-08T07:11:14.113Z,99.90
2019-03-08T07:13:44.393Z,99.90
2019-03-08T07:16:14.951Z,99.90
2019-03-08T07:18:45.546Z,99.90
2019-03-08T07:21:26.964Z,99.90
2019-03-08T07:24:02.898Z,99.90
2019-03-08T07:27:08.784Z,99.90
2019-03-08T07:29:55.682Z,99.90
2019-03-08T07:32:43.737Z,99.90
2019-03-08T07:35:33.927Z,99.90
2019-03-08T07:38:21.658Z,99.90
2019-03-08T07:41:01.812Z,99.90
2019-03-08T07:43:40.317Z,99.90
2019-03-08T07:46:29.902Z,99.90
2019-03-08T07:49:22.459Z,99.90
2019-03-08T07:52:12.021Z,99.90
2019-03-08T07:55:16.547Z,99.90
2019-03-08T07:58:25.275Z,99.90
2019-03-08T08:01:20.375Z,99.90
2019-03-08T08:04:04.103Z,99.90
2019-03-08T08:06:52.051Z,99.90
2019-03-08T08:09:28.415Z,99.90
2019-03-08T08:12:11.728Z,99.90
2019-03-08T08:14:57.425Z,99.90
2019-03-08T08:17:37.580Z,99.90
2019-03-08T08:20:31.353Z,99.90
2019-03-08T08:23:34.008Z,99.90
2019-03-08T08:26:26.684Z,99.90
2019-03-08T08:29:15.234Z,99.90
2019-03-08T08:32:07.675Z,99.90
2019-03-08T08:34:53.564Z,99.90
2019-03-08T08:37:43.333Z,99.90
2019-03-08T08:40:38.549Z,99.90
2019-03-08T08:43:20.565Z,99.90
2019-03-08T08:46:08.590Z,99.90
2019-03-08T08:48:53.963Z,99.90
2019-03-08T08:51:45.894Z,99.90
2019-03-08T08:54:53.387Z,99.90
2019-03-08T08:57:42.862Z,99.90
2019-03-08T09:00:26.585Z,99.90
2019-03-08T09:03:14.225Z,99.90
2019-03-08T09:05:53.359Z,99.90
2019-03-08T09:08:49.075Z,99.90
2019-03-08T09:11:31.359Z,99.90
2019-03-08T09:14:16.346Z,99.90
2019-03-08T09:17:05.613Z,99.90
2019-03-08T09:19:59.350Z,99.90
2019-03-08T09:22:51.213Z,99.90
2019-03-08T09:25:46.419Z,99.90
2019-03-08T09:28:34.960Z,99.90
2019-03-08T09:31:24.988Z,99.90
2019-03-08T09:34:03.166Z,99.90
2019-03-08T09:36:51.304Z,99.90
2019-03-08T09:39:49.485Z,99.90
2019-03-08T09:42:44.892Z,99.90
2019-03-08T09:45:23.626Z,99.90
2019-03-08T09:48:07.557Z,99.90
2019-03-08T09:50:50.171Z,99.90
2019-03-08T09:53:45.887Z,99.90
2019-03-08T09:56:33.619Z,99.90
2019-03-08T09:59:17.561Z,99.90
2019-03-08T10:02:01.712Z,99.90
2019-03-08T10:04:47.599Z,99.90
2019-03-08T10:07:38.843Z,99.90
2019-03-08T10:10:30.740Z,99.90
2019-03-08T10:13:26.766Z,99.90
2019-03-08T10:16:02.926Z,99.90
2019-03-08T10:18:55.986Z,99.90
2019-03-08T10:21:45.147Z,99.90
2019-03-08T10:24:30.526Z,99.90
2019-03-08T10:27:19.689Z,99.90
2019-03-08T10:30:14.997Z,99.90
2019-03-08T10:33:04.265Z,99.90
2019-03-08T10:35:44.408Z,99.90
2019-03-08T10:38:33.586Z,99.90
2019-03-08T10:41:26.539Z,99.90
2019-03-08T10:44:24.716Z,99.90
2019-03-08T10:47:31.100Z,99.90
2019-03-08T10:50:25.983Z,99.90
2019-03-08T10:53:18.220Z,96.40
2019-03-08T10:55:56.677Z,99.90
2019-03-08T10:58:44.878Z,99.90
2019-03-08T11:01:33.837Z,99.90
2019-03-08T11:04:29.147Z,99.90
2019-03-08T11:07:18.334Z,98.00
2019-03-08T11:10:06.561Z,99.30
2019-03-08T11:12:49.883Z,96.40
2019-03-08T11:15:57.175Z,94.40
2019-03-08T11:18:50.336Z,99.00
2019-03-08T11:21:39.497Z,96.90
2019-03-08T11:24:28.766Z,95.90
2019-03-08T11:27:16.805Z,95.40
2019-03-08T11:30:04.638Z,94.90
2019-03-08T11:32:46.383Z,95.80
2019-03-08T11:35:36.700Z,95.80
2019-03-08T11:38:14.281Z,97.10
2019-03-08T11:41:12.960Z,91.90
2019-03-08T11:44:03.193Z,89.70
2019-03-08T11:46:57.362Z,79.90
2019-03-08T11:49:52.380Z,82.40
2019-03-08T11:52:50.656Z,76.10
2019-03-08T11:55:38.491Z,72.30
2019-03-08T11:58:26.532Z,72.20
2019-03-08T12:01:17.292Z,69.20
2019-03-08T12:04:08.034Z,69.30
2019-03-08T12:06:45.787Z,70.10
2019-03-08T12:09:32.336Z,68.80
2019-03-08T12:12:40.239Z,73.60
2019-03-08T12:15:32.898Z,66.00
2019-03-08T12:18:28.299Z,67.60
2019-03-08T12:21:17.157Z,65.90
2019-03-08T12:24:04.583Z,70.30
2019-03-08T12:27:04.688Z,65.70
2019-03-08T12:29:52.435Z,69.50
2019-03-08T12:32:36.985Z,63.20
2019-03-08T12:35:32.200Z,67.00
2019-03-08T12:38:14.975Z,61.20
2019-03-08T12:40:53.939Z,63.00
2019-03-08T12:43:56.928Z,61.70
2019-03-08T12:46:44.866Z,59.80
2019-03-08T12:49:32.907Z,59.70
2019-03-08T12:52:10.394Z,57.80
2019-03-08T12:55:14.920Z,56.70
2019-03-08T12:57:55.484Z,56.20
2019-03-08T13:00:35.823Z,55.20
2019-03-08T13:03:32.856Z,54.50
2019-03-08T13:06:20.207Z,56.00
2019-03-08T13:08:56.995Z,56.70
2019-03-08T13:11:33.276Z,53.90
2019-03-08T13:13:59.318Z,54.40
2019-03-08T13:16:29.761Z,54.60
2019-03-08T13:18:59.979Z,53.70
2019-03-08T13:21:30.189Z,53.20
2019-03-08T13:24:01.270Z,53.90
2019-03-08T13:26:31.804Z,57.00
2019-03-08T13:29:01.977Z,52.00
2019-03-08T13:31:32.255Z,51.60
2019-03-08T13:34:02.518Z,49.70
2019-03-08T13:36:32.731Z,47.40
2019-03-08T13:39:03.382Z,45.90
2019-03-08T13:41:48.398Z,45.80
2019-03-08T13:44:20.150Z,49.90
2019-03-08T13:46:50.279Z,48.10
2019-03-08T13:49:20.850Z,46.50
2019-03-08T13:51:50.869Z,44.70
2019-03-08T13:54:21.214Z,46.60
2019-03-08T13:56:51.791Z,48.90
2019-03-08T13:59:24.622Z,55.60
2019-03-08T14:02:01.887Z,56.00
2019-03-08T14:04:32.870Z,53.50
2019-03-08T14:07:03.873Z,50.80
2019-03-08T14:09:34.190Z,53.00
2019-03-08T14:12:04.356Z,50.20
2019-03-08T14:14:34.830Z,51.00
2019-03-08T14:17:15.334Z,49.30
2019-03-08T14:19:47.738Z,50.10
2019-03-08T14:22:19.637Z,54.00
2019-03-08T14:24:53.644Z,52.70
2019-03-08T14:27:24.704Z,54.60
2019-03-08T14:29:55.221Z,54.90
2019-03-08T14:32:26.953Z,53.20
2019-03-08T14:34:57.346Z,50.50
2019-03-08T14:37:27.871Z,50.00
2019-03-08T14:39:58.201Z,49.30
2019-03-08T14:42:49.091Z,53.50
2019-03-08T14:45:28.026Z,49.90
2019-03-08T14:47:59.719Z,47.40
2019-03-08T14:50:31.866Z,48.50
2019-03-08T14:53:01.845Z,50.20
2019-03-08T14:55:32.172Z,48.30
2019-03-08T14:58:02.398Z,45.30
2019-03-08T15:00:32.710Z,44.10
2019-03-08T15:03:07.047Z,45.10
2019-03-08T15:05:37.247Z,47.00
2019-03-08T15:08:07.522Z,44.70
2019-03-08T15:10:39.736Z,47.60
2019-03-08T15:13:11.330Z,45.40
2019-03-08T15:15:41.537Z,44.90
2019-03-08T15:18:11.801Z,45.40
2019-03-08T15:20:41.979Z,45.50
2019-03-08T15:23:13.449Z,47.10
2019-03-08T15:25:49.058Z,47.30
2019-03-08T15:28:17.655Z,45.20
2019-03-08T15:30:48.015Z,46.60
2019-03-08T15:33:19.318Z,43.60
2019-03-08T15:35:49.499Z,45.20
2019-03-08T15:38:19.755Z,44.50
2019-03-08T15:40:51.876Z,44.10
2019-03-08T15:43:31.484Z,44.90
2019-03-08T15:46:04.043Z,42.50
2019-03-08T15:48:39.987Z,40.70
2019-03-08T15:51:12.096Z,41.20
2019-03-08T15:53:43.537Z,43.30
2019-03-08T15:56:14.897Z,45.30
2019-03-08T15:58:45.191Z,45.40
2019-03-08T16:01:20.100Z,44.80
2019-03-08T16:03:47.899Z,42.70
2019-03-08T16:06:19.856Z,42.00
2019-03-08T16:08:50.861Z,43.20
2019-03-08T16:11:31.374Z,42.20
2019-03-08T16:14:08.758Z,41.40
2019-03-08T16:16:36.648Z,44.30
2019-03-08T16:19:06.920Z,45.20
2019-03-08T16:21:38.562Z,46.40
2019-03-08T16:24:14.867Z,47.00
2019-03-08T16:26:49.687Z,47.20
2019-03-08T16:29:29.028Z,44.70
2019-03-08T16:32:07.602Z,43.50
2019-03-08T16:34:37.463Z,41.60
2019-03-08T16:37:27.015Z,42.00
2019-03-08T16:40:26.530Z,43.00
2019-03-08T16:43:16.848Z,42.60
2019-03-08T16:46:31.175Z,45.20
2019-03-08T16:49:18.784Z,47.30
2019-03-08T16:52:25.779Z,43.20
2019-03-08T16:55:13.816Z,44.00
2019-03-08T16:58:09.431Z,43.50
2019-03-08T17:01:08.225Z,45.80
2019-03-08T17:04:05.067Z,47.80
2019-03-08T17:06:50.139Z,47.60
2019-03-08T17:09:40.019Z,50.00
2019-03-08T17:12:49.154Z,52.40
2019-03-08T17:15:44.973Z,54.40
2019-03-08T17:18:29.339Z,57.70
2019-03-08T17:21:31.494Z,60.00
2019-03-08T17:24:11.281Z,64.10
2019-03-08T17:26:57.435Z,67.80
2019-03-08T17:29:47.316Z,72.40
2019-03-08T17:32:39.349Z,75.90
2019-03-08T17:35:37.627Z,78.40
2019-03-08T17:38:25.668Z,81.00
2019-03-08T17:41:26.914Z,82.50
2019-03-08T17:44:19.254Z,84.20
2019-03-08T17:46:57.657Z,86.70
2019-03-08T17:49:45.399Z,89.20
2019-03-08T17:52:41.731Z,89.00
2019-03-08T17:55:30.590Z,91.20
2019-03-08T17:58:22.738Z,92.50
2019-03-08T18:01:10.557Z,93.00
2019-03-08T18:04:12.282Z,93.70
2019-03-08T18:06:53.994Z,93.90
2019-03-08T18:09:34.469Z,95.00
2019-03-08T18:12:23.428Z,96.70
2019-03-08T18:15:16.486Z,96.10
2019-03-08T18:17:58.585Z,94.70
2019-03-08T18:20:50.514Z,96.10
2019-03-08T18:23:39.782Z,96.00
2019-03-08T18:26:31.612Z,97.60
2019-03-08T18:29:29.789Z,97.80
2019-03-08T18:32:14.245Z,97.70
2019-03-08T18:35:09.550Z,98.40
2019-03-08T18:38:17.249Z,99.10
2019-03-08T18:41:12.405Z,99.30
2019-03-08T18:44:00.496Z,99.90
2019-03-08T18:46:48.541Z,99.90
2019-03-08T18:49:40.205Z,99.90
2019-03-08T18:52:18.138Z,99.90
2019-03-08T18:55:07.322Z,99.90
2019-03-08T18:58:06.422Z,99.90
2019-03-08T19:00:57.431Z,99.90
2019-03-08T19:03:59.194Z,99.90
2019-03-08T19:06:37.706Z,99.90
2019-03-08T19:09:27.791Z,99.90
2019-03-08T19:12:09.987Z,99.90
2019-03-08T19:14:53.005Z,99.90
2019-03-08T19:17:49.859Z,99.90
2019-03-08T19:20:40.758Z,99.90
2019-03-08T19:23:19.896Z,99.90
2019-03-08T19:26:15.327Z,99.90
2019-03-08T19:28:54.744Z,99.90
2019-03-08T19:31:43.909Z,99.90
2019-03-08T19:34:24.974Z,99.90
2019-03-08T19:37:17.222Z,99.90
2019-03-08T19:40:05.262Z,99.90
2019-03-08T19:42:54.220Z,99.90
2019-03-08T19:45:50.245Z,99.90
2019-03-08T19:48:37.678Z,99.90
2019-03-08T19:51:20.385Z,99.90
2019-03-08T19:53:56.237Z,99.90
2019-03-08T19:57:00.564Z,99.90
2019-03-08T19:59:58.110Z,99.90
2019-03-08T20:02:41.970Z,99.90
2019-03-08T20:05:18.634Z,99.90
2019-03-08T20:08:07.490Z,99.90
2019-03-08T20:10:57.066Z,99.90
2019-03-08T20:13:49.507Z,99.90
2019-03-08T20:16:37.341Z,99.90
2019-03-08T20:19:25.891Z,99.90
2019-03-08T20:22:21.199Z,99.90
2019-03-08T20:25:29.105Z,99.90
2019-03-08T20:28:08.622Z,99.90
2019-03-08T20:30:48.386Z,99.90
2019-03-08T20:33:36.530Z,99.90
2019-03-08T20:36:44.841Z,99.90
2019-03-08T20:39:39.170Z,99.90
2019-03-08T20:42:34.436Z,99.90
2019-03-08T20:45:11.829Z,99.90
2019-03-08T20:47:42.077Z,99.90
2019-03-08T20:50:12.566Z,99.90
2019-03-08T20:52:42.917Z,99.90
2019-03-08T20:55:13.446Z,99.90
2019-03-08T20:57:43.641Z,99.90
2019-03-08T21:00:14.750Z,99.90
2019-03-08T21:02:45.000Z,99.90
2019-03-08T21:05:15.334Z,99.90
2019-03-08T21:07:45.664Z,99.90
2019-03-08T21:10:15.978Z,99.90
2019-03-08T21:12:46.554Z,99.90
2019-03-08T21:15:24.927Z,99.90
2019-03-08T21:17:48.899Z,99.90
2019-03-08T21:20:18.997Z,99.90
2019-03-08T21:22:49.241Z,99.90
2019-03-08T21:25:19.586Z,99.90
2019-03-08T21:27:49.871Z,99.90
2019-03-08T21:30:20.346Z,99.90
2019-03-08T21:32:50.575Z,99.90
2019-03-08T21:35:20.893Z,99.90
2019-03-08T21:37:51.382Z,99.90
2019-03-08T21:40:21.596Z,99.90
2019-03-08T21:42:51.867Z,99.90
2019-03-08T21:45:22.394Z,99.90
2019-03-08T21:47:52.676Z,99.90
2019-03-08T21:50:23.009Z,99.90
2019-03-08T21:52:53.326Z,99.90
2019-03-08T21:55:23.576Z,99.90
2019-03-08T21:57:53.868Z,99.90
2019-03-08T22:00:24.606Z,99.90
2019-03-08T22:02:54.810Z,99.90
2019-03-08T22:05:27.910Z,99.90
2019-03-08T22:07:58.180Z,99.90
2019-03-08T22:10:49.227Z,99.90
2019-03-08T22:13:19.550Z,99.90
2019-03-08T22:15:49.548Z,99.90
2019-03-08T22:18:19.639Z,99.90
2019-03-08T22:20:50.214Z,99.90
2019-03-08T22:23:20.480Z,99.90
2019-03-08T22:25:50.651Z,99.90
2019-03-08T22:28:20.957Z,99.90
2019-03-08T22:30:51.143Z,99.90
2019-03-08T22:33:21.572Z,99.90
2019-03-08T22:35:51.732Z,99.90
2019-03-08T22:38:23.405Z,99.90
2019-03-08T22:40:54.532Z,99.90
2019-03-08T22:43:24.786Z,99.90
2019-03-08T22:45:55.146Z,99.90
2019-03-08T22:48:25.425Z,99.90
2019-03-08T22:50:55.687Z,99.90
2019-03-08T22:53:25.913Z,99.90
2019-03-08T22:55:56.233Z,99.90
2019-03-08T22:58:26.527Z,99.90
2019-03-08T23:01:16.284Z,99.90
2019-03-08T23:03:46.624Z,99.90
2019-03-08T23:06:17.143Z,99.90
2019-03-08T23:08:47.343Z,99.90
2019-03-08T23:11:17.465Z,99.90
2019-03-08T23:13:47.644Z,99.90
2019-03-08T23:16:17.650Z,99.90
2019-03-08T23:18:47.937Z,99.90
2019-03-08T23:21:18.208Z,99.90
2019-03-08T23:23:48.289Z,99.90
2019-03-08T23:26:18.530Z,99.90
2019-03-08T23:28:55.997Z,99.90
2019-03-08T23:31:54.275Z,99.90
2019-03-08T23:34:24.375Z,99.90
2019-03-08T23:36:54.558Z,99.90
2019-03-08T23:39:24.836Z,99.90
2019-03-08T23:41:56.024Z,99.90
2019-03-08T23:44:26.346Z,99.90
2019-03-08T23:46:56.731Z,99.90
2019-03-08T23:49:27.017Z,99.90
2019-03-08T23:51:57.155Z,99.90
2019-03-08T23:54:27.478Z,99.90
2019-03-08T23:56:57.690Z,99.90
2019-03-08T23:59:27.839Z,99.90
